sensor_id;sensor_type;location;lat;lon;timestamp;temperature;humidity
67748;HTU21D;54543;50.712;6.070;2023-06-10T00:01:48;20.81;49.67
67748;HTU21D;54543;50.712;6.070;2023-06-10T00:04:14;20.78;49.78
67748;HTU21D;54543;50.712;6.070;2023-06-10T00:06:40;20.76;49.84
67748;HTU21D;54543;50.712;6.070;2023-06-10T00:09:06;20.71;50.03
67748;HTU21D;54543;50.712;6.070;2023-06-10T00:11:37;20.68;50.15
67748;HTU21D;54543;50.712;6.070;2023-06-10T00:14:03;20.63;50.22
67748;HTU21D;54543;50.712;6.070;2023-06-10T00:16:28;20.62;50.30
67748;HTU21D;54543;50.712;6.070;2023-06-10T00:18:54;20.59;50.58
67748;HTU21D;54543;50.712;6.070;2023-06-10T00:21:30;20.59;50.78
67748;HTU21D;54543;50.712;6.070;2023-06-10T00:24:06;20.59;50.64
67748;HTU21D;54543;50.712;6.070;2023-06-10T00:26:32;20.60;50.52
67748;HTU21D;54543;50.712;6.070;2023-06-10T00:29:01;20.62;50.77
67748;HTU21D;54543;50.712;6.070;2023-06-10T00:31:27;20.64;50.64
67748;HTU21D;54543;50.712;6.070;2023-06-10T00:33:53;20.64;50.66
67748;HTU21D;54543;50.712;6.070;2023-06-10T00:36:19;20.63;50.74
67748;HTU21D;54543;50.712;6.070;2023-06-10T00:38:44;20.62;50.87
67748;HTU21D;54543;50.712;6.070;2023-06-10T00:41:10;20.65;51.02
67748;HTU21D;54543;50.712;6.070;2023-06-10T00:43:35;20.70;51.00
67748;HTU21D;54543;50.712;6.070;2023-06-10T00:46:01;20.76;50.87
67748;HTU21D;54543;50.712;6.070;2023-06-10T00:48:27;20.80;50.69
67748;HTU21D;54543;50.712;6.070;2023-06-10T00:50:53;20.80;50.73
67748;HTU21D;54543;50.712;6.070;2023-06-10T00:53:19;20.81;51.10
67748;HTU21D;54543;50.712;6.070;2023-06-10T00:55:46;20.83;50.76
67748;HTU21D;54543;50.712;6.070;2023-06-10T00:58:12;20.80;50.87
67748;HTU21D;54543;50.712;6.070;2023-06-10T01:00:38;20.83;50.93
67748;HTU21D;54543;50.712;6.070;2023-06-10T01:03:04;20.81;50.92
67748;HTU21D;54543;50.712;6.070;2023-06-10T01:05:36;20.81;52.83
67748;HTU21D;54543;50.712;6.070;2023-06-10T01:08:17;20.84;51.64
67748;HTU21D;54543;50.712;6.070;2023-06-10T01:13:12;20.81;51.32
67748;HTU21D;54543;50.712;6.070;2023-06-10T01:15:39;20.81;51.00
67748;HTU21D;54543;50.712;6.070;2023-06-10T01:18:09;20.80;51.04
67748;HTU21D;54543;50.712;6.070;2023-06-10T01:20:36;20.77;51.09
67748;HTU21D;54543;50.712;6.070;2023-06-10T01:23:06;20.72;51.37
67748;HTU21D;54543;50.712;6.070;2023-06-10T01:25:32;20.68;51.46
67748;HTU21D;54543;50.712;6.070;2023-06-10T01:28:14;20.60;52.07
67748;HTU21D;54543;50.712;6.070;2023-06-10T01:33:18;20.44;52.00
67748;HTU21D;54543;50.712;6.070;2023-06-10T01:35:50;20.41;52.11
67748;HTU21D;54543;50.712;6.070;2023-06-10T01:38:16;20.41;52.06
67748;HTU21D;54543;50.712;6.070;2023-06-10T01:40:43;20.40;52.07
67748;HTU21D;54543;50.712;6.070;2023-06-10T01:43:09;20.39;52.34
67748;HTU21D;54543;50.712;6.070;2023-06-10T01:45:34;20.42;52.07
67748;HTU21D;54543;50.712;6.070;2023-06-10T01:48:00;20.45;52.27
67748;HTU21D;54543;50.712;6.070;2023-06-10T01:50:25;20.50;52.21
67748;HTU21D;54543;50.712;6.070;2023-06-10T01:52:51;20.55;51.91
67748;HTU21D;54543;50.712;6.070;2023-06-10T01:55:17;20.57;51.88
67748;HTU21D;54543;50.712;6.070;2023-06-10T01:57:42;20.58;51.86
67748;HTU21D;54543;50.712;6.070;2023-06-10T02:00:08;20.61;51.79
67748;HTU21D;54543;50.712;6.070;2023-06-10T02:02:35;20.61;51.79
67748;HTU21D;54543;50.712;6.070;2023-06-10T02:05:01;20.60;51.80
67748;HTU21D;54543;50.712;6.070;2023-06-10T02:07:27;20.57;51.91
67748;HTU21D;54543;50.712;6.070;2023-06-10T02:09:52;20.50;52.07
67748;HTU21D;54543;50.712;6.070;2023-06-10T02:12:18;20.46;52.33
67748;HTU21D;54543;50.712;6.070;2023-06-10T02:14:43;20.43;52.36
67748;HTU21D;54543;50.712;6.070;2023-06-10T02:17:09;20.39;52.56
67748;HTU21D;54543;50.712;6.070;2023-06-10T02:19:38;20.35;52.73
67748;HTU21D;54543;50.712;6.070;2023-06-10T02:22:08;20.35;52.55
67748;HTU21D;54543;50.712;6.070;2023-06-10T02:24:36;20.34;52.62
67748;HTU21D;54543;50.712;6.070;2023-06-10T02:27:02;20.33;52.54
67748;HTU21D;54543;50.712;6.070;2023-06-10T02:29:28;20.30;52.63
67748;HTU21D;54543;50.712;6.070;2023-06-10T02:31:54;20.29;52.65
67748;HTU21D;54543;50.712;6.070;2023-06-10T02:34:20;20.27;52.82
67748;HTU21D;54543;50.712;6.070;2023-06-10T02:36:46;20.28;52.75
67748;HTU21D;54543;50.712;6.070;2023-06-10T02:39:14;20.29;52.75
67748;HTU21D;54543;50.712;6.070;2023-06-10T02:41:39;20.31;52.63
67748;HTU21D;54543;50.712;6.070;2023-06-10T02:44:05;20.32;52.62
67748;HTU21D;54543;50.712;6.070;2023-06-10T02:46:31;20.33;52.49
67748;HTU21D;54543;50.712;6.070;2023-06-10T02:48:57;20.34;52.40
67748;HTU21D;54543;50.712;6.070;2023-06-10T02:51:22;20.34;52.37
67748;HTU21D;54543;50.712;6.070;2023-06-10T02:53:48;20.34;52.49
67748;HTU21D;54543;50.712;6.070;2023-06-10T02:56:16;20.34;52.59
67748;HTU21D;54543;50.712;6.070;2023-06-10T02:58:41;20.32;52.53
67748;HTU21D;54543;50.712;6.070;2023-06-10T03:01:07;20.32;52.57
67748;HTU21D;54543;50.712;6.070;2023-06-10T03:03:34;20.31;52.47
67748;HTU21D;54543;50.712;6.070;2023-06-10T03:06:02;20.29;52.57
67748;HTU21D;54543;50.712;6.070;2023-06-10T03:08:28;20.27;52.43
67748;HTU21D;54543;50.712;6.070;2023-06-10T03:10:54;20.24;52.53
67748;HTU21D;54543;50.712;6.070;2023-06-10T03:13:19;20.17;52.59
67748;HTU21D;54543;50.712;6.070;2023-06-10T03:15:45;20.13;52.72
67748;HTU21D;54543;50.712;6.070;2023-06-10T03:18:11;20.09;52.85
67748;HTU21D;54543;50.712;6.070;2023-06-10T03:20:37;20.03;52.91
67748;HTU21D;54543;50.712;6.070;2023-06-10T03:23:04;20.01;53.10
67748;HTU21D;54543;50.712;6.070;2023-06-10T03:25:33;19.92;53.27
67748;HTU21D;54543;50.712;6.070;2023-06-10T03:27:58;19.90;53.29
67748;HTU21D;54543;50.712;6.070;2023-06-10T03:30:24;19.86;53.39
67748;HTU21D;54543;50.712;6.070;2023-06-10T03:32:50;19.82;53.45
67748;HTU21D;54543;50.712;6.070;2023-06-10T03:35:15;19.77;53.74
67748;HTU21D;54543;50.712;6.070;2023-06-10T03:37:41;19.71;53.75
67748;HTU21D;54543;50.712;6.070;2023-06-10T03:40:07;19.65;53.94
67748;HTU21D;54543;50.712;6.070;2023-06-10T03:42:34;19.60;53.97
67748;HTU21D;54543;50.712;6.070;2023-06-10T03:45:00;19.56;54.10
67748;HTU21D;54543;50.712;6.070;2023-06-10T03:47:26;19.55;54.21
67748;HTU21D;54543;50.712;6.070;2023-06-10T03:49:51;19.56;54.10
67748;HTU21D;54543;50.712;6.070;2023-06-10T03:52:18;19.56;54.10
67748;HTU21D;54543;50.712;6.070;2023-06-10T03:54:44;19.51;54.24
67748;HTU21D;54543;50.712;6.070;2023-06-10T03:57:09;19.45;54.43
67748;HTU21D;54543;50.712;6.070;2023-06-10T03:59:35;19.41;54.57
67748;HTU21D;54543;50.712;6.070;2023-06-10T04:02:00;19.38;54.65
67748;HTU21D;54543;50.712;6.070;2023-06-10T04:04:27;19.36;54.77
67748;HTU21D;54543;50.712;6.070;2023-06-10T04:06:52;19.36;54.77
67748;HTU21D;54543;50.712;6.070;2023-06-10T04:09:18;19.33;54.81
67748;HTU21D;54543;50.712;6.070;2023-06-10T04:11:43;19.30;54.93
67748;HTU21D;54543;50.712;6.070;2023-06-10T04:14:09;19.28;55.05
67748;HTU21D;54543;50.712;6.070;2023-06-10T04:16:35;19.27;55.14
67748;HTU21D;54543;50.712;6.070;2023-06-10T04:19:00;19.25;55.37
67748;HTU21D;54543;50.712;6.070;2023-06-10T04:21:26;19.25;55.30
67748;HTU21D;54543;50.712;6.070;2023-06-10T04:23:52;19.26;55.42
67748;HTU21D;54543;50.712;6.070;2023-06-10T04:26:18;19.28;55.25
67748;HTU21D;54543;50.712;6.070;2023-06-10T04:28:44;19.31;55.28
67748;HTU21D;54543;50.712;6.070;2023-06-10T04:31:10;19.33;55.29
67748;HTU21D;54543;50.712;6.070;2023-06-10T04:33:35;19.38;55.30
67748;HTU21D;54543;50.712;6.070;2023-06-10T04:36:01;19.40;55.35
67748;HTU21D;54543;50.712;6.070;2023-06-10T04:38:27;19.43;55.29
67748;HTU21D;54543;50.712;6.070;2023-06-10T04:40:52;19.46;55.32
67748;HTU21D;54543;50.712;6.070;2023-06-10T04:43:18;19.48;55.42
67748;HTU21D;54543;50.712;6.070;2023-06-10T04:45:43;19.52;55.39
67748;HTU21D;54543;50.712;6.070;2023-06-10T04:48:12;19.53;55.38
67748;HTU21D;54543;50.712;6.070;2023-06-10T04:50:38;19.57;55.58
67748;HTU21D;54543;50.712;6.070;2023-06-10T04:53:04;19.57;55.78
67748;HTU21D;54543;50.712;6.070;2023-06-10T04:55:30;19.54;56.26
67748;HTU21D;54543;50.712;6.070;2023-06-10T04:57:56;19.57;56.26
67748;HTU21D;54543;50.712;6.070;2023-06-10T05:00:22;19.54;56.63
67748;HTU21D;54543;50.712;6.070;2023-06-10T05:02:48;19.53;56.90
67748;HTU21D;54543;50.712;6.070;2023-06-10T05:05:16;19.54;57.05
67748;HTU21D;54543;50.712;6.070;2023-06-10T05:07:42;19.53;57.31
67748;HTU21D;54543;50.712;6.070;2023-06-10T05:10:08;19.52;57.67
67748;HTU21D;54543;50.712;6.070;2023-06-10T05:12:33;19.54;57.93
67748;HTU21D;54543;50.712;6.070;2023-06-10T05:14:59;19.55;57.89
67748;HTU21D;54543;50.712;6.070;2023-06-10T05:17:25;19.59;57.97
67748;HTU21D;54543;50.712;6.070;2023-06-10T05:19:51;19.67;57.91
67748;HTU21D;54543;50.712;6.070;2023-06-10T05:22:16;19.73;58.00
67748;HTU21D;54543;50.712;6.070;2023-06-10T05:24:44;19.80;58.00
67748;HTU21D;54543;50.712;6.070;2023-06-10T05:27:10;19.88;58.32
67748;HTU21D;54543;50.712;6.070;2023-06-10T05:29:35;19.96;58.71
67748;HTU21D;54543;50.712;6.070;2023-06-10T05:32:01;19.99;58.35
67748;HTU21D;54543;50.712;6.070;2023-06-10T05:34:31;20.07;58.22
67748;HTU21D;54543;50.712;6.070;2023-06-10T05:36:57;20.21;58.04
67748;HTU21D;54543;50.712;6.070;2023-06-10T05:39:23;20.29;58.08
67748;HTU21D;54543;50.712;6.070;2023-06-10T05:41:48;20.36;58.24
67748;HTU21D;54543;50.712;6.070;2023-06-10T05:44:14;20.45;58.22
67748;HTU21D;54543;50.712;6.070;2023-06-10T05:46:40;20.54;58.24
67748;HTU21D;54543;50.712;6.070;2023-06-10T05:49:05;20.61;58.28
67748;HTU21D;54543;50.712;6.070;2023-06-10T05:51:32;20.69;58.39
67748;HTU21D;54543;50.712;6.070;2023-06-10T05:53:57;20.76;58.32
67748;HTU21D;54543;50.712;6.070;2023-06-10T05:56:23;20.84;58.29
67748;HTU21D;54543;50.712;6.070;2023-06-10T05:58:49;20.91;58.09
67748;HTU21D;54543;50.712;6.070;2023-06-10T06:01:15;20.99;58.03
67748;HTU21D;54543;50.712;6.070;2023-06-10T06:03:40;21.08;57.90
67748;HTU21D;54543;50.712;6.070;2023-06-10T06:06:06;21.20;57.61
67748;HTU21D;54543;50.712;6.070;2023-06-10T06:08:32;21.30;57.30
67748;HTU21D;54543;50.712;6.070;2023-06-10T06:10:57;21.44;56.98
67748;HTU21D;54543;50.712;6.070;2023-06-10T06:13:23;21.57;56.58
67748;HTU21D;54543;50.712;6.070;2023-06-10T06:15:49;21.68;55.81
67748;HTU21D;54543;50.712;6.070;2023-06-10T06:18:15;21.84;55.41
67748;HTU21D;54543;50.712;6.070;2023-06-10T06:20:40;21.97;55.19
67748;HTU21D;54543;50.712;6.070;2023-06-10T06:23:06;22.09;54.91
67748;HTU21D;54543;50.712;6.070;2023-06-10T06:25:34;22.21;54.85
67748;HTU21D;54543;50.712;6.070;2023-06-10T06:28:01;22.29;54.78
67748;HTU21D;54543;50.712;6.070;2023-06-10T06:30:27;22.38;54.82
67748;HTU21D;54543;50.712;6.070;2023-06-10T06:32:53;22.49;54.65
67748;HTU21D;54543;50.712;6.070;2023-06-10T06:35:18;22.60;54.59
67748;HTU21D;54543;50.712;6.070;2023-06-10T06:37:44;22.68;54.46
67748;HTU21D;54543;50.712;6.070;2023-06-10T06:40:10;22.78;54.49
67748;HTU21D;54543;50.712;6.070;2023-06-10T06:42:35;22.85;54.36
67748;HTU21D;54543;50.712;6.070;2023-06-10T06:45:01;22.92;54.20
67748;HTU21D;54543;50.712;6.070;2023-06-10T06:47:27;23.00;54.07
67748;HTU21D;54543;50.712;6.070;2023-06-10T06:49:52;23.08;54.03
67748;HTU21D;54543;50.712;6.070;2023-06-10T06:52:18;23.17;53.94
67748;HTU21D;54543;50.712;6.070;2023-06-10T06:54:44;23.25;53.68
67748;HTU21D;54543;50.712;6.070;2023-06-10T06:57:10;23.31;53.51
67748;HTU21D;54543;50.712;6.070;2023-06-10T06:59:36;23.42;53.46
67748;HTU21D;54543;50.712;6.070;2023-06-10T07:02:02;23.53;53.29
67748;HTU21D;54543;50.712;6.070;2023-06-10T07:04:28;23.61;53.02
67748;HTU21D;54543;50.712;6.070;2023-06-10T07:06:54;23.70;52.85
67748;HTU21D;54543;50.712;6.070;2023-06-10T07:09:19;23.79;52.75
67748;HTU21D;54543;50.712;6.070;2023-06-10T07:11:45;23.88;52.60
67748;HTU21D;54543;50.712;6.070;2023-06-10T07:14:11;23.96;52.47
67748;HTU21D;54543;50.712;6.070;2023-06-10T07:16:36;24.05;52.24
67748;HTU21D;54543;50.712;6.070;2023-06-10T07:19:02;24.13;52.14
67748;HTU21D;54543;50.712;6.070;2023-06-10T07:21:27;24.20;52.16
67748;HTU21D;54543;50.712;6.070;2023-06-10T07:23:53;24.29;52.08
67748;HTU21D;54543;50.712;6.070;2023-06-10T07:26:22;24.40;51.98
67748;HTU21D;54543;50.712;6.070;2023-06-10T07:28:47;24.48;51.85
67748;HTU21D;54543;50.712;6.070;2023-06-10T07:31:13;24.60;51.78
67748;HTU21D;54543;50.712;6.070;2023-06-10T07:33:39;24.69;51.63
67748;HTU21D;54543;50.712;6.070;2023-06-10T07:36:05;24.77;51.24
67748;HTU21D;54543;50.712;6.070;2023-06-10T07:38:31;24.86;50.95
67748;HTU21D;54543;50.712;6.070;2023-06-10T07:40:56;24.95;50.69
67748;HTU21D;54543;50.712;6.070;2023-06-10T07:43:23;25.04;50.42
67748;HTU21D;54543;50.712;6.070;2023-06-10T07:45:48;25.13;50.22
67748;HTU21D;54543;50.712;6.070;2023-06-10T07:48:14;25.21;50.08
67748;HTU21D;54543;50.712;6.070;2023-06-10T07:50:40;25.30;49.92
67748;HTU21D;54543;50.712;6.070;2023-06-10T07:53:06;25.36;49.81
67748;HTU21D;54543;50.712;6.070;2023-06-10T07:55:31;25.44;49.76
67748;HTU21D;54543;50.712;6.070;2023-06-10T07:57:57;25.53;49.52
67748;HTU21D;54543;50.712;6.070;2023-06-10T08:00:23;25.62;49.32
67748;HTU21D;54543;50.712;6.070;2023-06-10T08:02:49;25.71;49.16
67748;HTU21D;54543;50.712;6.070;2023-06-10T08:05:15;25.80;48.92
67748;HTU21D;54543;50.712;6.070;2023-06-10T08:07:41;25.88;48.89
67748;HTU21D;54543;50.712;6.070;2023-06-10T08:10:08;25.94;48.68
67748;HTU21D;54543;50.712;6.070;2023-06-10T08:12:34;26.01;48.67
67748;HTU21D;54543;50.712;6.070;2023-06-10T08:15:01;26.08;48.49
67748;HTU21D;54543;50.712;6.070;2023-06-10T08:17:30;26.11;48.49
67748;HTU21D;54543;50.712;6.070;2023-06-10T08:19:56;26.21;48.38
67748;HTU21D;54543;50.712;6.070;2023-06-10T08:22:22;26.31;48.02
67748;HTU21D;54543;50.712;6.070;2023-06-10T08:24:47;26.40;47.79
67748;HTU21D;54543;50.712;6.070;2023-06-10T08:27:13;26.50;47.50
67748;HTU21D;54543;50.712;6.070;2023-06-10T08:29:39;26.57;47.09
67748;HTU21D;54543;50.712;6.070;2023-06-10T08:32:05;26.66;46.59
67748;HTU21D;54543;50.712;6.070;2023-06-10T08:34:33;26.79;45.64
67748;HTU21D;54543;50.712;6.070;2023-06-10T08:36:59;26.89;45.86
67748;HTU21D;54543;50.712;6.070;2023-06-10T08:39:25;26.97;45.68
67748;HTU21D;54543;50.712;6.070;2023-06-10T08:42:20;27.06;43.89
67748;HTU21D;54543;50.712;6.070;2023-06-10T08:44:49;27.15;44.99
67748;HTU21D;54543;50.712;6.070;2023-06-10T08:47:18;27.22;44.78
67748;HTU21D;54543;50.712;6.070;2023-06-10T08:49:46;27.25;44.39
67748;HTU21D;54543;50.712;6.070;2023-06-10T08:52:19;27.26;43.94
67748;HTU21D;54543;50.712;6.070;2023-06-10T08:54:59;27.35;43.50
67748;HTU21D;54543;50.712;6.070;2023-06-10T08:57:27;27.44;44.23
67748;HTU21D;54543;50.712;6.070;2023-06-10T08:59:56;27.52;41.54
67748;HTU21D;54543;50.712;6.070;2023-06-10T09:02:24;27.57;43.75
67748;HTU21D;54543;50.712;6.070;2023-06-10T09:04:50;27.61;43.54
67748;HTU21D;54543;50.712;6.070;2023-06-10T09:07:16;27.67;43.50
67748;HTU21D;54543;50.712;6.070;2023-06-10T09:09:43;27.73;43.42
67748;HTU21D;54543;50.712;6.070;2023-06-10T09:12:10;27.80;43.13
67748;HTU21D;54543;50.712;6.070;2023-06-10T09:14:36;27.88;42.99
67748;HTU21D;54543;50.712;6.070;2023-06-10T09:17:03;28.00;42.74
67748;HTU21D;54543;50.712;6.070;2023-06-10T09:19:29;28.05;42.34
67748;HTU21D;54543;50.712;6.070;2023-06-10T09:21:55;28.11;42.23
67748;HTU21D;54543;50.712;6.070;2023-06-10T09:24:24;28.16;41.95
67748;HTU21D;54543;50.712;6.070;2023-06-10T09:26:50;28.24;41.82
67748;HTU21D;54543;50.712;6.070;2023-06-10T09:29:16;28.30;41.69
67748;HTU21D;54543;50.712;6.070;2023-06-10T09:31:43;28.33;41.30
67748;HTU21D;54543;50.712;6.070;2023-06-10T09:34:11;28.39;41.40
67748;HTU21D;54543;50.712;6.070;2023-06-10T09:36:38;28.45;41.12
67748;HTU21D;54543;50.712;6.070;2023-06-10T09:39:04;28.49;40.65
67748;HTU21D;54543;50.712;6.070;2023-06-10T09:41:34;28.53;38.78
67748;HTU21D;54543;50.712;6.070;2023-06-10T09:44:01;28.61;40.54
67748;HTU21D;54543;50.712;6.070;2023-06-10T09:46:30;28.63;40.07
67748;HTU21D;54543;50.712;6.070;2023-06-10T09:48:58;28.69;40.18
67748;HTU21D;54543;50.712;6.070;2023-06-10T09:51:24;28.75;40.10
67748;HTU21D;54543;50.712;6.070;2023-06-10T09:53:53;28.83;38.86
67748;HTU21D;54543;50.712;6.070;2023-06-10T09:56:19;28.90;40.06
67748;HTU21D;54543;50.712;6.070;2023-06-10T09:58:46;28.97;39.78
67748;HTU21D;54543;50.712;6.070;2023-06-10T10:01:14;29.01;39.61
67748;HTU21D;54543;50.712;6.070;2023-06-10T10:03:50;29.08;38.17
67748;HTU21D;54543;50.712;6.070;2023-06-10T10:06:17;29.17;38.98
67748;HTU21D;54543;50.712;6.070;2023-06-10T10:08:46;29.20;39.18
67748;HTU21D;54543;50.712;6.070;2023-06-10T10:11:13;29.26;38.99
67748;HTU21D;54543;50.712;6.070;2023-06-10T10:13:40;29.30;38.71
67748;HTU21D;54543;50.712;6.070;2023-06-10T10:16:17;29.36;38.55
67748;HTU21D;54543;50.712;6.070;2023-06-10T10:18:52;29.39;36.37
67748;HTU21D;54543;50.712;6.070;2023-06-10T10:21:23;29.44;37.96
67748;HTU21D;54543;50.712;6.070;2023-06-10T10:24:22;29.52;33.73
67748;HTU21D;54543;50.712;6.070;2023-06-10T10:26:50;29.62;36.72
67748;HTU21D;54543;50.712;6.070;2023-06-10T10:31:56;29.67;37.32
67748;HTU21D;54543;50.712;6.070;2023-06-10T10:36:57;29.67;36.66
67748;HTU21D;54543;50.712;6.070;2023-06-10T10:39:23;29.67;36.11
67748;HTU21D;54543;50.712;6.070;2023-06-10T10:41:50;29.75;36.14
67748;HTU21D;54543;50.712;6.070;2023-06-10T10:44:16;29.83;35.92
67748;HTU21D;54543;50.712;6.070;2023-06-10T10:46:49;29.90;35.08
67748;HTU21D;54543;50.712;6.070;2023-06-10T10:49:16;29.95;35.96
67748;HTU21D;54543;50.712;6.070;2023-06-10T10:52:02;29.98;34.22
67748;HTU21D;54543;50.712;6.070;2023-06-10T10:54:35;30.00;35.05
67748;HTU21D;54543;50.712;6.070;2023-06-10T10:59:52;29.96;33.27
67748;HTU21D;54543;50.712;6.070;2023-06-10T11:02:43;30.00;32.34
67748;HTU21D;54543;50.712;6.070;2023-06-10T11:05:16;30.02;32.57
67748;HTU21D;54543;50.712;6.070;2023-06-10T11:07:52;30.00;31.50
67748;HTU21D;54543;50.712;6.070;2023-06-10T11:10:29;29.95;34.10
67748;HTU21D;54543;50.712;6.070;2023-06-10T11:12:55;29.95;34.24
67748;HTU21D;54543;50.712;6.070;2023-06-10T11:15:26;29.96;33.05
67748;HTU21D;54543;50.712;6.070;2023-06-10T11:18:19;30.00;32.93
67748;HTU21D;54543;50.712;6.070;2023-06-10T11:25:51;30.06;33.03
67748;HTU21D;54543;50.712;6.070;2023-06-10T11:28:20;30.02;31.77
67748;HTU21D;54543;50.712;6.070;2023-06-10T11:30:46;30.04;33.67
67748;HTU21D;54543;50.712;6.070;2023-06-10T11:33:17;30.22;32.37
67748;HTU21D;54543;50.712;6.070;2023-06-10T11:35:43;30.37;32.42
67748;HTU21D;54543;50.712;6.070;2023-06-10T11:38:09;30.48;32.66
67748;HTU21D;54543;50.712;6.070;2023-06-10T11:40:36;30.57;31.73
67748;HTU21D;54543;50.712;6.070;2023-06-10T11:43:04;30.52;31.30
67748;HTU21D;54543;50.712;6.070;2023-06-10T11:45:29;30.45;32.15
67748;HTU21D;54543;50.712;6.070;2023-06-10T11:47:59;30.45;31.34
67748;HTU21D;54543;50.712;6.070;2023-06-10T11:50:31;30.47;32.67
67748;HTU21D;54543;50.712;6.070;2023-06-10T11:52:57;30.53;32.41
67748;HTU21D;54543;50.712;6.070;2023-06-10T11:55:25;30.56;32.57
67748;HTU21D;54543;50.712;6.070;2023-06-10T11:57:51;30.64;32.76
67748;HTU21D;54543;50.712;6.070;2023-06-10T12:00:23;30.65;31.91
67748;HTU21D;54543;50.712;6.070;2023-06-10T12:02:57;30.64;31.49
67748;HTU21D;54543;50.712;6.070;2023-06-10T12:05:23;30.63;32.29
67748;HTU21D;54543;50.712;6.070;2023-06-10T12:07:48;30.65;31.51
67748;HTU21D;54543;50.712;6.070;2023-06-10T12:10:14;30.60;32.04
67748;HTU21D;54543;50.712;6.070;2023-06-10T12:12:40;30.66;32.03
67748;HTU21D;54543;50.712;6.070;2023-06-10T12:15:06;30.72;32.11
67748;HTU21D;54543;50.712;6.070;2023-06-10T12:20:00;30.76;32.18
67748;HTU21D;54543;50.712;6.070;2023-06-10T12:22:25;30.68;32.06
67748;HTU21D;54543;50.712;6.070;2023-06-10T12:25:02;30.61;29.72
67748;HTU21D;54543;50.712;6.070;2023-06-10T12:27:29;30.64;32.12
67748;HTU21D;54543;50.712;6.070;2023-06-10T12:29:56;30.75;32.76
67748;HTU21D;54543;50.712;6.070;2023-06-10T12:32:43;30.86;28.92
67748;HTU21D;54543;50.712;6.070;2023-06-10T12:35:10;30.90;31.82
67748;HTU21D;54543;50.712;6.070;2023-06-10T12:37:38;31.02;31.57
67748;HTU21D;54543;50.712;6.070;2023-06-10T12:40:05;31.02;31.26
67748;HTU21D;54543;50.712;6.070;2023-06-10T12:42:32;31.04;31.32
67748;HTU21D;54543;50.712;6.070;2023-06-10T12:45:00;31.05;31.12
67748;HTU21D;54543;50.712;6.070;2023-06-10T12:47:44;31.16;30.28
67748;HTU21D;54543;50.712;6.070;2023-06-10T12:50:10;31.19;30.29
67748;HTU21D;54543;50.712;6.070;2023-06-10T12:52:37;31.04;29.06
67748;HTU21D;54543;50.712;6.070;2023-06-10T12:55:03;30.94;29.71
67748;HTU21D;54543;50.712;6.070;2023-06-10T12:57:29;30.95;30.44
67748;HTU21D;54543;50.712;6.070;2023-06-10T12:59:55;30.98;30.07
67748;HTU21D;54543;50.712;6.070;2023-06-10T13:02:25;31.01;30.07
67748;HTU21D;54543;50.712;6.070;2023-06-10T13:04:51;31.04;30.13
67748;HTU21D;54543;50.712;6.070;2023-06-10T13:07:17;31.06;29.45
67748;HTU21D;54543;50.712;6.070;2023-06-10T13:09:43;31.07;30.05
67748;HTU21D;54543;50.712;6.070;2023-06-10T13:12:09;31.19;30.00
67748;HTU21D;54543;50.712;6.070;2023-06-10T13:14:36;31.30;29.84
67748;HTU21D;54543;50.712;6.070;2023-06-10T13:17:04;31.43;29.54
67748;HTU21D;54543;50.712;6.070;2023-06-10T13:19:31;31.54;29.54
67748;HTU21D;54543;50.712;6.070;2023-06-10T13:21:58;31.59;29.30
67748;HTU21D;54543;50.712;6.070;2023-06-10T13:24:23;31.58;29.38
67748;HTU21D;54543;50.712;6.070;2023-06-10T13:26:49;31.49;29.22
67748;HTU21D;54543;50.712;6.070;2023-06-10T13:29:14;31.46;29.43
67748;HTU21D;54543;50.712;6.070;2023-06-10T13:31:40;31.35;29.60
67748;HTU21D;54543;50.712;6.070;2023-06-10T13:34:06;31.38;29.60
67748;HTU21D;54543;50.712;6.070;2023-06-10T13:36:32;31.45;29.34
67748;HTU21D;54543;50.712;6.070;2023-06-10T13:38:58;31.57;29.45
67748;HTU21D;54543;50.712;6.070;2023-06-10T13:41:23;31.68;29.10
67748;HTU21D;54543;50.712;6.070;2023-06-10T13:43:49;31.54;29.15
67748;HTU21D;54543;50.712;6.070;2023-06-10T13:46:15;31.48;29.68
67748;HTU21D;54543;50.712;6.070;2023-06-10T13:48:41;31.49;29.63
67748;HTU21D;54543;50.712;6.070;2023-06-10T13:51:07;31.36;29.90
67748;HTU21D;54543;50.712;6.070;2023-06-10T13:53:34;31.45;30.47
67748;HTU21D;54543;50.712;6.070;2023-06-10T13:55:59;31.65;30.50
67748;HTU21D;54543;50.712;6.070;2023-06-10T13:58:25;31.79;29.89
67748;HTU21D;54543;50.712;6.070;2023-06-10T14:00:51;31.96;29.40
67748;HTU21D;54543;50.712;6.070;2023-06-10T14:03:16;32.14;29.48
67748;HTU21D;54543;50.712;6.070;2023-06-10T14:05:42;32.27;28.26
67748;HTU21D;54543;50.712;6.070;2023-06-10T14:08:07;32.33;28.92
67748;HTU21D;54543;50.712;6.070;2023-06-10T14:10:33;32.39;28.83
67748;HTU21D;54543;50.712;6.070;2023-06-10T14:12:58;32.39;29.19
67748;HTU21D;54543;50.712;6.070;2023-06-10T14:15:25;32.40;29.24
67748;HTU21D;54543;50.712;6.070;2023-06-10T14:17:51;32.35;28.50
67748;HTU21D;54543;50.712;6.070;2023-06-10T14:20:16;32.18;29.46
67748;HTU21D;54543;50.712;6.070;2023-06-10T14:22:42;32.07;29.12
67748;HTU21D;54543;50.712;6.070;2023-06-10T14:25:08;31.94;29.16
67748;HTU21D;54543;50.712;6.070;2023-06-10T14:27:33;31.89;29.66
67748;HTU21D;54543;50.712;6.070;2023-06-10T14:29:59;31.89;30.11
67748;HTU21D;54543;50.712;6.070;2023-06-10T14:32:25;32.10;30.71
67748;HTU21D;54543;50.712;6.070;2023-06-10T14:34:50;32.43;30.70
67748;HTU21D;54543;50.712;6.070;2023-06-10T14:37:16;32.85;31.46
67748;HTU21D;54543;50.712;6.070;2023-06-10T14:39:44;33.44;30.88
67748;HTU21D;54543;50.712;6.070;2023-06-10T14:42:09;33.83;30.67
67748;HTU21D;54543;50.712;6.070;2023-06-10T14:44:35;34.26;29.16
67748;HTU21D;54543;50.712;6.070;2023-06-10T14:47:01;34.63;29.90
67748;HTU21D;54543;50.712;6.070;2023-06-10T14:49:26;35.05;29.90
67748;HTU21D;54543;50.712;6.070;2023-06-10T14:51:52;35.51;29.01
67748;HTU21D;54543;50.712;6.070;2023-06-10T14:54:17;35.80;28.85
67748;HTU21D;54543;50.712;6.070;2023-06-10T14:56:43;36.26;26.94
67748;HTU21D;54543;50.712;6.070;2023-06-10T14:59:09;36.44;27.26
67748;HTU21D;54543;50.712;6.070;2023-06-10T15:01:34;36.53;26.04
67748;HTU21D;54543;50.712;6.070;2023-06-10T15:04:01;36.63;25.75
67748;HTU21D;54543;50.712;6.070;2023-06-10T15:06:26;36.77;24.78
67748;HTU21D;54543;50.712;6.070;2023-06-10T15:08:52;36.70;23.97
67748;HTU21D;54543;50.712;6.070;2023-06-10T15:11:17;36.64;24.80
67748;HTU21D;54543;50.712;6.070;2023-06-10T15:13:43;36.73;24.62
67748;HTU21D;54543;50.712;6.070;2023-06-10T15:16:09;37.16;24.51
67748;HTU21D;54543;50.712;6.070;2023-06-10T15:18:34;37.60;24.34
67748;HTU21D;54543;50.712;6.070;2023-06-10T15:21:00;37.91;23.49
67748;HTU21D;54543;50.712;6.070;2023-06-10T15:23:25;38.01;23.88
67748;HTU21D;54543;50.712;6.070;2023-06-10T15:25:51;38.30;23.65
67748;HTU21D;54543;50.712;6.070;2023-06-10T15:28:17;38.67;23.41
67748;HTU21D;54543;50.712;6.070;2023-06-10T15:30:42;38.82;23.18
67748;HTU21D;54543;50.712;6.070;2023-06-10T15:33:08;38.76;21.56
67748;HTU21D;54543;50.712;6.070;2023-06-10T15:35:34;38.55;21.45